Terminal Aerodrome Forecast
Issued by NWS

Home | Current Version | Previous Version | Graphics & Text | Print | Product List | Glossary On
Versions: 1 2 3 4 5 6 7 8 9 10 11 12 13 14 15 16 17 18 19 20
000
FTUS43 KMPX 170700 AAA
TAFRWF
TAF AMD
KRWF 170739Z 1708/1806 18004KT 6SM BR FEW020 BKN040
     FM170900 11003KT 5SM BR SCT002 OVC006
      TEMPO 1711/1713 2SM TSRA BR OVC010CB
     FM171400 15005KT 6SM BR VCSH OVC008
     FM171800 17005KT P6SM VCTS SCT012 BKN035CB
     FM180000 16004KT P6SM SCT020 BKN040=

USA.gov is the U.S. government's official web portal to all federal, state and local government web resources and services.